Time;durP1;ratioP1;P1;durP2;ratioP2;P2;SDS_P1;SDS_P2;PMS_P1;PMS_P2;Temp;Humidity;BMP_temperature;BMP_pressure;BME280_temperature;BME280_humidity;BME280_pressure;Samples;Min_cycle;Max_cycle;Signal;HPM_P1;HPM_P2
2024/02/02 00:00:23;;;;;;;4.03;2.20;;;8.40;83.30;;;;;;4893568;29;20033;-86
2024/02/02 00:02:49;;;;;;;3.53;2.38;;;8.50;83.30;;;;;;4887234;29;20438;-85
2024/02/02 00:05:15;;;;;;;5.00;2.45;;;8.50;83.40;;;;;;4893373;29;20051;-84
2024/02/02 00:07:41;;;;;;;3.95;2.30;;;8.40;83.30;;;;;;4890655;29;20032;-92
2024/02/02 00:10:07;;;;;;;3.88;2.40;;;8.50;83.40;;;;;;4896255;29;20091;-91
2024/02/02 00:12:33;;;;;;;4.13;2.45;;;8.50;83.40;;;;;;4888610;29;20035;-92
2024/02/02 00:14:59;;;;;;;3.03;2.30;;;8.50;83.40;;;;;;4883699;29;20045;-93
2024/02/02 00:17:25;;;;;;;3.35;2.28;;;8.40;83.40;;;;;;4875729;29;20021;-94
2024/02/02 00:19:50;;;;;;;4.25;2.80;;;8.40;83.40;;;;;;4879190;29;20029;-94
2024/02/02 00:22:20;;;;;;;3.75;2.50;;;8.40;83.40;;;;;;4893262;29;20029;-93
2024/02/02 00:24:47;;;;;;;4.45;2.25;;;8.40;83.40;;;;;;4873872;29;20116;-93
2024/02/02 00:27:14;;;;;;;3.97;2.20;;;8.40;83.40;;;;;;4897094;29;20032;-93
2024/02/02 00:29:45;;;;;;;4.95;2.33;;;8.40;83.30;;;;;;4890489;29;20036;-95
2024/02/02 00:32:15;;;;;;;3.97;2.35;;;8.40;83.40;;;;;;4887658;29;20401;-92
2024/02/02 00:34:41;;;;;;;4.70;2.45;;;8.40;83.40;;;;;;4873308;29;20572;-85
2024/02/02 00:37:08;;;;;;;5.65;2.72;;;8.40;83.40;;;;;;4896849;29;20034;-94
2024/02/02 00:39:34;;;;;;;3.53;2.38;;;8.40;83.40;;;;;;4896337;29;20033;-93
2024/02/02 00:42:00;;;;;;;4.95;2.83;;;8.40;83.40;;;;;;4895881;29;20431;-80
2024/02/02 00:44:26;;;;;;;3.88;2.38;;;8.40;83.40;;;;;;4874504;29;20379;-79
2024/02/02 00:46:53;;;;;;;4.68;2.60;;;8.40;83.40;;;;;;4880116;29;20025;-79
2024/02/02 00:49:20;;;;;;;4.20;2.45;;;8.40;83.50;;;;;;4873892;29;20023;-79
2024/02/02 00:51:46;;;;;;;3.33;2.42;;;8.40;83.50;;;;;;4871802;29;20397;-78
2024/02/02 00:54:13;;;;;;;3.92;2.28;;;8.40;83.50;;;;;;4885399;29;20052;-79
2024/02/02 00:56:39;;;;;;;4.72;2.45;;;8.40;83.50;;;;;;4893120;29;20032;-78
2024/02/02 00:59:04;;;;;;;3.70;2.30;;;8.40;83.50;;;;;;4900740;29;20085;-87
2024/02/02 01:01:31;;;;;;;3.05;2.10;;;8.40;83.50;;;;;;4891113;29;20029;-91
2024/02/02 01:03:57;;;;;;;4.28;2.70;;;8.50;83.50;;;;;;4894179;29;20560;-84
2024/02/02 01:06:22;;;;;;;4.45;2.72;;;8.40;83.40;;;;;;4892058;29;20036;-94
2024/02/02 01:08:49;;;;;;;3.35;2.47;;;8.40;83.40;;;;;;4891151;29;20029;-92
2024/02/02 01:11:15;;;;;;;6.07;2.85;;;8.40;83.40;;;;;;4890882;29;20036;-78
2024/02/02 01:13:40;;;;;;;4.97;2.65;;;8.40;83.40;;;;;;4886647;29;20025;-79
2024/02/02 01:16:06;;;;;;;3.45;2.30;;;8.40;83.50;;;;;;4876862;29;20028;-79
2024/02/02 01:18:32;;;;;;;4.70;2.58;;;8.40;83.50;;;;;;4884933;29;20041;-94
2024/02/02 01:20:58;;;;;;;4.38;2.60;;;8.40;83.40;;;;;;4895911;29;20036;-94
2024/02/02 01:23:24;;;;;;;4.47;2.50;;;8.40;83.40;;;;;;4876729;29;20029;-92
2024/02/02 01:25:50;;;;;;;4.00;2.50;;;8.40;83.40;;;;;;4881177;29;20025;-77
2024/02/02 01:28:15;;;;;;;5.15;2.70;;;8.40;84.00;;;;;;4890196;29;20036;-82
2024/02/02 01:30:41;;;;;;;6.13;2.88;;;8.40;83.40;;;;;;4873569;29;20048;-93
2024/02/02 01:33:07;;;;;;;4.25;2.75;;;8.40;83.40;;;;;;4889908;29;20570;-81
2024/02/02 01:35:33;;;;;;;3.75;2.47;;;8.40;83.40;;;;;;4882196;29;20407;-92
2024/02/02 01:37:58;;;;;;;4.10;2.40;;;8.40;83.50;;;;;;4900509;29;20028;-93
2024/02/02 01:40:24;;;;;;;3.92;2.47;;;8.40;83.50;;;;;;4897094;29;20479;-81
2024/02/02 01:42:51;;;;;;;5.28;2.70;;;8.40;83.40;;;;;;4889138;29;20057;-81
2024/02/02 01:45:16;;;;;;;4.95;2.42;;;8.40;83.40;;;;;;4886290;29;20043;-76
2024/02/02 01:47:42;;;;;;;3.95;2.70;;;8.40;83.40;;;;;;4874732;29;20025;-93
2024/02/02 01:50:14;;;;;;;5.43;2.80;;;8.40;83.50;;;;;;4880637;29;20511;-84
2024/02/02 01:52:56;;;;;;;4.53;2.58;;;8.50;83.50;;;;;;4891654;29;20041;-83
2024/02/02 01:55:31;;;;;;;4.22;2.63;;;8.40;83.50;;;;;;4877725;29;20033;-84
2024/02/02 01:57:56;;;;;;;;;;;8.40;83.50;;;;;;4879994;29;20037;-84
2024/02/02 02:00:22;;;;;;;3.85;2.38;;;8.40;83.30;;;;;;4895854;29;19918;-81
2024/02/02 02:02:48;;;;;;;4.28;2.65;;;8.40;83.20;;;;;;4889363;29;20032;-83
2024/02/02 02:05:14;;;;;;;3.90;2.50;;;8.40;83.40;;;;;;4882303;29;20031;-83
2024/02/02 02:07:44;;;;;;;4.45;2.83;;;8.40;83.40;;;;;;4888803;29;20500;-81
2024/02/02 02:10:10;;;;;;;5.68;2.50;;;8.40;83.50;;;;;;4872482;29;20150;-78
2024/02/02 02:12:36;;;;;;;3.97;2.30;;;8.40;83.40;;;;;;4885360;29;20044;-86
2024/02/02 02:15:02;;;;;;;4.00;2.35;;;8.40;83.40;;;;;;4875451;29;20033;-79
2024/02/02 02:17:28;;;;;;;5.28;2.58;;;8.40;83.40;;;;;;4895919;29;20078;-78
2024/02/02 02:19:58;;;;;;;3.95;2.70;;;8.50;83.50;;;;;;4895052;29;20112;-76
2024/02/02 02:22:24;;;;;;;3.75;2.40;;;8.40;83.50;;;;;;4883733;29;20052;-76
2024/02/02 02:24:50;;;;;;;4.72;2.58;;;8.40;83.40;;;;;;4890230;29;20029;-83
2024/02/02 02:27:16;;;;;;;4.25;2.85;;;8.40;83.40;;;;;;4894491;29;20479;-83
2024/02/02 02:29:44;;;;;;;3.80;2.67;;;8.40;83.40;;;;;;4887621;29;20140;-77
2024/02/02 02:32:10;;;;;;;3.72;2.60;;;8.50;83.50;;;;;;4888325;29;20507;-94
2024/02/02 02:34:37;;;;;;;4.35;2.60;;;8.40;83.40;;;;;;4888902;29;20500;-84
2024/02/02 02:37:03;;;;;;;4.38;2.70;;;8.40;83.40;;;;;;4872690;29;20017;-83
2024/02/02 02:39:29;;;;;;;3.42;2.25;;;8.50;83.40;;;;;;4887594;29;20029;-76
2024/02/02 02:41:55;;;;;;;4.70;2.72;;;8.40;83.40;;;;;;4877245;29;20024;-94
2024/02/02 02:44:21;;;;;;;4.20;2.60;;;8.50;83.50;;;;;;4887821;29;20032;-82
2024/02/02 02:46:48;;;;;;;3.78;2.80;;;8.50;83.40;;;;;;4898907;29;20509;-93
2024/02/02 02:49:13;;;;;;;3.95;2.65;;;8.50;83.40;;;;;;4892485;29;20036;-94
2024/02/02 02:51:39;;;;;;;3.45;2.60;;;8.50;83.40;;;;;;4888575;29;20033;-76
2024/02/02 02:54:05;;;;;;;4.57;2.65;;;8.50;83.40;;;;;;4883933;29;20126;-76
2024/02/02 02:56:31;;;;;;;4.40;2.45;;;8.50;83.40;;;;;;4891717;29;20040;-77
2024/02/02 02:58:56;;;;;;;4.00;2.38;;;8.50;83.40;;;;;;4888537;29;20025;-91
2024/02/02 03:01:22;;;;;;;3.65;2.63;;;8.50;83.40;;;;;;4874631;29;20115;-81
2024/02/02 03:03:48;;;;;;;5.35;2.60;;;8.50;83.40;;;;;;4896000;29;20024;-82
2024/02/02 03:06:30;;;;;;;4.38;2.70;;;8.50;83.30;;;;;;4880685;29;20028;-84
2024/02/02 03:08:56;;;;;;;4.80;2.90;;;8.50;83.40;;;;;;4883341;29;20127;-83
2024/02/02 03:11:21;;;;;;;4.70;2.95;;;8.50;83.30;;;;;;4877805;29;20120;-91
2024/02/02 03:13:47;;;;;;;5.47;3.03;;;8.50;83.30;;;;;;4878420;29;20029;-76
2024/02/02 03:16:13;;;;;;;5.03;2.65;;;8.50;83.30;;;;;;4892824;29;20053;-83
2024/02/02 03:18:39;;;;;;;4.13;2.70;;;8.50;84.00;;;;;;4874814;29;20051;-92
2024/02/02 03:21:05;;;;;;;4.50;2.53;;;8.50;83.30;;;;;;4895007;29;20056;-81
2024/02/02 03:23:30;;;;;;;4.68;2.80;;;8.50;83.30;;;;;;4897121;29;20052;-92
2024/02/02 03:25:56;;;;;;;5.30;3.40;;;8.50;83.40;;;;;;4871214;29;20113;-81
2024/02/02 03:28:25;;;;;;;4.97;2.97;;;8.50;83.30;;;;;;4908806;29;20076;-77
2024/02/02 03:30:51;;;;;;;4.55;2.70;;;8.50;83.30;;;;;;4894634;29;20482;-76
2024/02/02 03:33:16;;;;;;;5.57;3.67;;;8.50;83.30;;;;;;4892935;29;20551;-76
2024/02/02 03:35:43;;;;;;;4.43;3.10;;;8.50;83.40;;;;;;4892714;29;20052;-91
2024/02/02 03:38:08;;;;;;;5.00;2.90;;;8.50;83.40;;;;;;4892425;29;20024;-76
2024/02/02 03:40:34;;;;;;;4.57;3.03;;;8.50;83.30;;;;;;4886054;29;20344;-76
2024/02/02 03:43:04;;;;;;;4.47;2.90;;;8.50;83.30;;;;;;4875976;29;20450;-83
2024/02/02 03:45:31;;;;;;;5.25;3.50;;;8.50;83.30;;;;;;4888564;29;20116;-83
2024/02/02 03:47:59;;;;;;;5.38;3.17;;;8.50;83.30;;;;;;4886870;29;20437;-83
2024/02/02 03:50:25;;;;;;;4.45;3.08;;;8.50;83.30;;;;;;4892780;29;20053;-84
2024/02/02 03:52:51;;;;;;;5.18;3.05;;;8.50;83.30;;;;;;4895790;29;20104;-83
2024/02/02 03:55:17;;;;;;;5.68;3.53;;;8.50;83.90;;;;;;4887432;29;20073;-83
2024/02/02 03:57:43;;;;;;;5.25;3.28;;;8.50;83.30;;;;;;4889674;29;20025;-83
2024/02/02 04:00:12;;;;;;;5.63;3.45;;;8.50;83.30;;;;;;4874176;29;20489;-86
2024/02/02 04:02:45;;;;;;;5.45;3.80;;;8.50;83.30;;;;;;4905716;29;20033;-81
2024/02/02 04:05:11;;;;;;;5.50;3.60;;;8.50;83.30;;;;;;4883281;29;20029;-92
2024/02/02 04:07:37;;;;;;;5.68;3.58;;;8.50;83.30;;;;;;4882813;29;20037;-95
2024/02/02 04:10:03;;;;;;;5.50;3.78;;;8.50;83.30;;;;;;4877928;29;21460;-78
2024/02/02 04:12:29;;;;;;;5.50;3.85;;;8.50;83.30;;;;;;4873268;29;20040;-78
2024/02/02 04:14:55;;;;;;;6.00;3.65;;;8.50;83.20;;;;;;4891970;29;20528;-83
2024/02/02 04:17:21;;;;;;;5.50;3.88;;;8.50;83.20;;;;;;4893568;29;20041;-96
2024/02/02 04:19:47;;;;;;;5.25;3.70;;;8.50;83.20;;;;;;4891001;29;20033;-78
2024/02/02 04:22:16;;;;;;;5.72;4.18;;;8.50;83.20;;;;;;4887730;29;20016;-93
2024/02/02 04:24:43;;;;;;;6.20;3.65;;;8.50;83.20;;;;;;4891666;29;20368;-81
2024/02/02 04:27:09;;;;;;;5.47;3.85;;;8.50;83.30;;;;;;4883143;29;20391;-78
2024/02/02 04:29:35;;;;;;;4.82;3.70;;;8.50;83.30;;;;;;4889070;29;20041;-83
2024/02/02 04:32:00;;;;;;;5.68;3.95;;;8.50;83.30;;;;;;4896286;29;20464;-83
2024/02/02 04:34:26;;;;;;;6.40;3.80;;;8.50;83.30;;;;;;4879080;29;20032;-95
2024/02/02 04:36:52;;;;;;;5.45;4.10;;;8.50;83.30;;;;;;4877830;29;20028;-83
2024/02/02 04:39:22;;;;;;;5.88;3.95;;;8.50;83.30;;;;;;4891777;29;20039;-85
2024/02/02 04:41:54;;;;;;;5.68;4.00;;;8.50;83.30;;;;;;4893707;29;20474;-95
2024/02/02 04:44:20;;;;;;;5.90;3.80;;;8.50;83.30;;;;;;4893826;29;20074;-96
2024/02/02 04:46:46;;;;;;;5.32;4.07;;;8.40;83.20;;;;;;4912919;29;20060;-78
2024/02/02 04:49:14;;;;;;;5.80;3.80;;;8.50;83.30;;;;;;4897447;29;20029;-78
2024/02/02 04:51:40;;;;;;;5.68;3.92;;;8.40;83.30;;;;;;4898084;29;20069;-85
2024/02/02 04:54:06;;;;;;;4.88;3.78;;;8.50;83.40;;;;;;4883632;29;20076;-79
2024/02/02 04:56:35;;;;;;;6.00;4.05;;;8.40;83.30;;;;;;4880109;29;20120;-86
2024/02/02 04:59:01;;;;;;;6.00;4.13;;;8.40;83.30;;;;;;4897187;29;20510;-78
2024/02/02 05:01:26;;;;;;;5.32;3.97;;;8.40;83.30;;;;;;4878715;29;20155;-95
2024/02/02 05:03:53;;;;;;;5.78;4.03;;;8.40;83.30;;;;;;4893373;29;20049;-85
2024/02/02 05:06:19;;;;;;;5.82;3.92;;;8.50;83.30;;;;;;4898198;29;20032;-85
2024/02/02 05:08:45;;;;;;;5.95;3.97;;;8.40;83.30;;;;;;4896968;29;20033;-94
2024/02/02 05:11:12;;;;;;;5.72;4.25;;;8.40;83.30;;;;;;4900580;29;20393;-95
2024/02/02 05:13:38;;;;;;;6.93;4.25;;;8.40;83.30;;;;;;4884402;29;20032;-83
2024/02/02 05:16:04;;;;;;;6.07;4.15;;;8.40;83.30;;;;;;4888069;29;20029;-85
2024/02/02 05:18:30;;;;;;;6.07;4.03;;;8.40;83.30;;;;;;4894471;29;20521;-95
2024/02/02 05:20:56;;;;;;;6.53;4.35;;;8.40;83.30;;;;;;4897223;29;20465;-95
2024/02/02 05:23:23;;;;;;;6.30;3.85;;;8.40;83.30;;;;;;4907452;29;20028;-83
2024/02/02 05:25:49;;;;;;;6.55;4.10;;;8.40;83.20;;;;;;4894341;29;20060;-94
2024/02/02 05:28:15;;;;;;;5.72;3.90;;;8.40;83.20;;;;;;4887494;29;20060;-83
2024/02/02 05:30:41;;;;;;;5.32;3.65;;;8.40;83.20;;;;;;4895151;29;20040;-85
2024/02/02 05:33:07;;;;;;;5.35;3.85;;;8.40;83.20;;;;;;4891327;29;20065;-96
2024/02/02 05:35:33;;;;;;;5.30;3.78;;;8.40;83.20;;;;;;4898749;29;20033;-95
2024/02/02 05:37:59;;;;;;;6.25;4.00;;;8.40;83.20;;;;;;4907518;29;20033;-84
2024/02/02 05:40:25;;;;;;;5.22;3.80;;;8.40;83.20;;;;;;4884042;29;20621;-85
2024/02/02 05:42:51;;;;;;;5.28;3.67;;;8.40;83.20;;;;;;4892644;29;20100;-82
2024/02/02 05:45:17;;;;;;;4.88;3.63;;;8.40;83.20;;;;;;4890688;29;20047;-83
2024/02/02 05:47:43;;;;;;;5.75;3.90;;;8.40;83.20;;;;;;4899998;29;20028;-86
2024/02/02 05:50:09;;;;;;;6.13;3.65;;;8.40;83.20;;;;;;4881050;29;20041;-78
2024/02/02 05:52:35;;;;;;;6.30;3.83;;;8.40;83.20;;;;;;4896929;29;20033;-80
2024/02/02 05:55:01;;;;;;;5.15;3.92;;;8.40;83.20;;;;;;4881471;29;20047;-87
2024/02/02 05:57:27;;;;;;;4.95;3.53;;;8.40;83.80;;;;;;4882268;29;20481;-85
2024/02/02 05:59:53;;;;;;;5.25;3.70;;;8.40;83.20;;;;;;4886153;29;20052;-79
2024/02/02 06:02:18;;;;;;;6.03;3.70;;;8.40;83.20;;;;;;4897145;29;20397;-79
2024/02/02 06:04:44;;;;;;;6.10;3.72;;;8.40;83.20;;;;;;4898223;29;20035;-79
2024/02/02 06:07:10;;;;;;;5.45;3.35;;;8.40;83.20;;;;;;4876215;29;20027;-80
2024/02/02 06:09:36;;;;;;;5.18;3.45;;;8.40;83.20;;;;;;4874425;29;20040;-93
2024/02/02 06:12:02;;;;;;;5.38;3.33;;;8.40;83.20;;;;;;4892798;29;20029;-86
2024/02/02 06:14:30;;;;;;;4.95;3.58;;;8.40;83.20;;;;;;4888924;29;20036;-85
2024/02/02 06:16:56;;;;;;;5.15;3.67;;;8.40;83.20;;;;;;4887404;29;20254;-85
2024/02/02 06:19:22;;;;;;;4.60;3.28;;;8.40;83.20;;;;;;4879715;29;20426;-85
2024/02/02 06:21:49;;;;;;;4.15;3.08;;;8.40;83.20;;;;;;4881900;29;20066;-84
2024/02/02 06:24:15;;;;;;;5.88;3.60;;;8.40;83.20;;;;;;4893294;29;20033;-82
2024/02/02 06:26:40;;;;;;;6.45;3.75;;;8.40;83.20;;;;;;4896004;29;20028;-85
2024/02/02 06:29:06;;;;;;;6.00;3.47;;;8.40;83.20;;;;;;4895342;29;20024;-82
2024/02/02 06:31:32;;;;;;;5.22;2.95;;;8.40;83.20;;;;;;4897253;29;20367;-78
2024/02/02 06:33:58;;;;;;;5.38;3.55;;;8.40;83.20;;;;;;4872536;29;20100;-86
2024/02/02 06:36:26;;;;;;;4.80;3.25;;;8.40;83.20;;;;;;4899269;29;20397;-79
2024/02/02 06:38:56;;;;;;;4.68;3.30;;;8.40;83.20;;;;;;4894109;29;20021;-85
2024/02/02 06:41:23;;;;;;;4.90;3.00;;;8.30;83.20;;;;;;4893624;29;20053;-79
2024/02/02 06:43:50;;;;;;;6.10;2.95;;;8.40;83.20;;;;;;4897894;29;20564;-84
2024/02/02 06:46:15;;;;;;;4.43;3.05;;;8.40;83.20;;;;;;4895472;29;20167;-93
2024/02/02 06:48:44;;;;;;;4.82;2.78;;;8.30;83.10;;;;;;4902965;29;20115;-81
2024/02/02 06:51:10;;;;;;;5.63;3.10;;;8.40;83.20;;;;;;4896947;29;20080;-88
2024/02/02 06:53:36;;;;;;;6.55;3.38;;;8.40;83.20;;;;;;4892253;29;20545;-88
2024/02/02 06:56:28;;;;;;;6.63;3.45;;;8.30;83.10;;;;;;4876808;29;20041;-87
2024/02/02 06:58:54;;;;;;;4.63;3.10;;;8.40;83.20;;;;;;4881906;29;20037;-82
2024/02/02 07:01:20;;;;;;;5.97;3.33;;;8.40;83.20;;;;;;4884505;29;20042;-79
2024/02/02 07:03:47;;;;;;;5.38;3.10;;;8.40;83.20;;;;;;4878097;29;20115;-94
2024/02/02 07:06:12;;;;;;;4.78;3.22;;;8.30;83.20;;;;;;4873965;29;20048;-93
2024/02/02 07:08:38;;;;;;;4.28;3.05;;;8.30;83.20;;;;;;4885437;29;20616;-88
2024/02/02 07:11:13;;;;;;;4.93;2.97;;;8.30;83.20;;;;;;4878483;29;20040;-87
2024/02/02 07:13:51;;;;;;;;;;;8.30;83.20;;;;;;4878922;29;20028;-78
2024/02/02 07:16:24;;;;;;;4.80;2.70;;;8.30;83.10;;;;;;4889259;29;19915;-87
2024/02/02 07:18:50;;;;;;;4.35;2.50;;;8.30;83.00;;;;;;4896709;29;20024;-88
2024/02/02 07:21:16;;;;;;;3.88;2.75;;;8.30;83.00;;;;;;4871161;29;20029;-92
2024/02/02 07:23:44;;;;;;;3.72;2.63;;;8.30;83.10;;;;;;4893340;29;20033;-90
2024/02/02 07:26:30;;;;;;;4.60;2.67;;;8.30;83.10;;;;;;4876731;29;20049;-86
2024/02/02 07:28:57;;;;;;;4.50;2.63;;;8.30;83.10;;;;;;4896454;29;20020;-96
2024/02/02 07:31:38;;;;;;;4.80;2.80;;;8.30;83.10;;;;;;4900887;29;20035;-93
2024/02/02 07:34:29;;;;;;;4.78;2.70;;;8.30;83.20;;;;;;4897844;29;20024;-83
2024/02/02 07:36:55;;;;;;;4.32;2.38;;;8.30;83.20;;;;;;4887849;29;20060;-82
2024/02/02 07:39:29;;;;;;;5.68;2.63;;;8.30;83.10;;;;;;4884589;29;20472;-90
2024/02/02 07:41:57;;;;;;;5.65;2.83;;;8.30;83.20;;;;;;4885789;29;20146;-82
2024/02/02 07:44:25;;;;;;;4.45;2.65;;;8.30;83.10;;;;;;4892005;29;20032;-95
2024/02/02 07:46:50;;;;;;;4.38;2.70;;;8.30;83.20;;;;;;4885748;29;20120;-78
2024/02/02 07:49:18;;;;;;;4.07;2.60;;;8.30;83.20;;;;;;4892102;29;20064;-82
2024/02/02 07:51:45;;;;;;;5.13;2.67;;;8.30;83.10;;;;;;4892316;29;20077;-82
2024/02/02 07:54:11;;;;;;;6.03;2.72;;;8.30;83.10;;;;;;4889571;29;20072;-78
2024/02/02 07:56:40;;;;;;;3.55;2.60;;;8.40;83.20;;;;;;4880065;29;20035;-81
2024/02/02 07:59:05;;;;;;;6.60;3.30;;;8.40;83.80;;;;;;4906985;29;20028;-95
2024/02/02 08:01:33;;;;;;;4.50;2.75;;;8.30;83.10;;;;;;4891687;29;20531;-95
2024/02/02 08:04:00;;;;;;;4.80;2.88;;;8.40;83.10;;;;;;4895258;29;20040;-81
2024/02/02 08:06:26;;;;;;;5.65;3.15;;;8.40;83.10;;;;;;4899447;29;20454;-78
2024/02/02 08:08:52;;;;;;;4.25;2.85;;;8.40;83.10;;;;;;4892647;29;20127;-78
2024/02/02 08:11:18;;;;;;;4.30;3.20;;;8.40;83.10;;;;;;4905556;29;20133;-96
2024/02/02 08:13:43;;;;;;;5.38;3.17;;;8.40;83.10;;;;;;4914057;29;20528;-91
2024/02/02 08:16:09;;;;;;;4.95;3.20;;;8.40;83.10;;;;;;4884023;29;20039;-78
2024/02/02 08:18:36;;;;;;;5.38;3.00;;;8.40;83.00;;;;;;4896172;29;20054;-78
2024/02/02 08:21:03;;;;;;;6.40;3.63;;;8.40;83.00;;;;;;4890023;29;20363;-84
2024/02/02 08:23:29;;;;;;;7.45;3.63;;;8.50;83.10;;;;;;4890806;29;20048;-82
2024/02/02 08:25:55;;;;;;;5.50;3.92;;;8.50;83.60;;;;;;4888624;29;20029;-96
2024/02/02 08:28:21;;;;;;;6.68;4.03;;;8.50;83.00;;;;;;4895427;29;20029;-84
2024/02/02 08:30:47;;;;;;;6.95;3.53;;;8.50;83.00;;;;;;4891316;29;20032;-82
2024/02/02 08:33:13;;;;;;;5.30;3.42;;;8.50;83.00;;;;;;4888093;29;20029;-96
2024/02/02 08:35:39;;;;;;;6.47;4.00;;;8.50;83.00;;;;;;4873530;29;20114;-77
2024/02/02 08:38:08;;;;;;;5.60;3.78;;;8.50;83.00;;;;;;4892192;29;20024;-81
2024/02/02 08:40:43;;;;;;;5.82;3.67;;;8.50;83.00;;;;;;4891260;29;20060;-94
2024/02/02 08:43:14;;;;;;;5.80;3.97;;;8.50;83.00;;;;;;4887991;29;20173;-95
2024/02/02 08:45:52;;;;;;;5.85;3.72;;;8.50;83.00;;;;;;4889730;29;20025;-78
2024/02/02 08:48:39;;;;;;;6.85;4.03;;;8.60;83.00;;;;;;4885053;29;20429;-82
2024/02/02 08:51:41;;;;;;;4.88;3.88;;;8.60;83.10;;;;;;4890567;29;20029;-94
2024/02/02 08:54:10;;;;;;;6.70;4.00;;;8.60;83.00;;;;;;4891633;29;20041;-85
2024/02/02 08:56:36;;;;;;;6.45;3.35;;;8.60;82.90;;;;;;4875197;29;20048;-77
2024/02/02 08:59:28;;;;;;;5.85;4.07;;;8.60;82.90;;;;;;4876400;29;20115;-84
2024/02/02 09:01:55;;;;;;;6.63;4.22;;;8.60;83.00;;;;;;4910745;29;20033;-93
2024/02/02 09:04:45;;;;;;;6.38;4.22;;;8.60;82.90;;;;;;4885484;29;20040;-82
2024/02/02 09:07:16;;;;;;;6.10;3.60;;;8.60;82.90;;;;;;4892377;29;20092;-82
2024/02/02 09:09:42;;;;;;;6.10;4.10;;;8.70;82.90;;;;;;4899944;29;20490;-85
2024/02/02 09:12:08;;;;;;;8.70;4.18;;;8.70;82.90;;;;;;4893131;29;20029;-77
2024/02/02 09:14:34;;;;;;;7.75;4.22;;;8.70;82.90;;;;;;4888020;29;20030;-78
2024/02/02 09:16:59;;;;;;;6.93;4.45;;;8.70;82.90;;;;;;4887434;29;20477;-78
2024/02/02 09:19:42;;;;;;;6.80;4.45;;;8.70;82.90;;;;;;4872393;29;20045;-85
2024/02/02 09:22:18;;;;;;;5.82;3.88;;;8.70;82.90;;;;;;4894824;29;20541;-82
2024/02/02 09:24:48;;;;;;;7.35;4.75;;;8.80;82.90;;;;;;4889565;29;20060;-78
2024/02/02 09:27:38;;;;;;;6.65;4.15;;;8.80;82.90;;;;;;4878888;29;20056;-83
2024/02/02 09:30:10;;;;;;;6.97;4.60;;;8.80;82.90;;;;;;4882361;29;20032;-84
2024/02/02 09:32:36;;;;;;;7.03;4.25;;;8.80;82.80;;;;;;4888265;29;20096;-82
2024/02/02 09:35:47;;;;;;;4.78;3.83;;;8.80;82.80;;;;;;4882051;29;20051;-78
2024/02/02 09:38:12;;;;;;;5.35;3.88;;;8.80;82.90;;;;;;4887884;29;20149;-96
2024/02/02 09:40:44;;;;;;;6.20;4.55;;;8.80;82.70;;;;;;4898204;29;20021;-78
2024/02/02 09:43:23;;;;;;;5.95;4.38;;;8.90;82.80;;;;;;4878155;29;20088;-82
2024/02/02 09:46:11;;;;;;;6.65;4.50;;;8.90;82.90;;;;;;4889797;29;20043;-78
2024/02/02 09:48:44;;;;;;;6.63;4.50;;;8.90;82.80;;;;;;4872753;29;20040;-93
2024/02/02 09:51:33;;;;;;;7.75;4.38;;;8.90;82.70;;;;;;4884612;29;20029;-78
2024/02/02 09:54:03;;;;;;;7.38;4.28;;;8.90;82.80;;;;;;4882416;29;20120;-94
2024/02/02 09:56:39;;;;;;;6.25;4.10;;;9.00;82.80;;;;;;4894967;29;20833;-78
2024/02/02 09:59:43;;;;;;;5.95;4.32;;;9.00;82.80;;;;;;4891284;29;20370;-82
2024/02/02 10:02:42;;;;;;;6.82;4.20;;;9.00;82.80;;;;;;4893524;29;20044;-84
2024/02/02 10:05:24;;;;;;;6.70;3.78;;;9.00;82.70;;;;;;4896583;29;20033;-94
2024/02/02 10:08:17;;;;;;;5.97;4.07;;;9.00;82.70;;;;;;4894267;29;20390;-83
2024/02/02 10:11:03;;;;;;;8.35;4.78;;;9.00;82.70;;;;;;4877997;29;20037;-84
2024/02/02 10:13:55;;;;;;;6.07;4.38;;;9.10;82.80;;;;;;4877880;29;20481;-79
2024/02/02 10:16:42;;;;;;;5.32;4.05;;;9.10;82.80;;;;;;4881204;29;20040;-85
2024/02/02 10:19:36;;;;;;;5.25;3.90;;;9.10;82.70;;;;;;4870948;29;20072;-86
2024/02/02 10:22:20;;;;;;;6.63;4.28;;;9.10;82.70;;;;;;4880069;29;20035;-95
2024/02/02 10:25:14;;;;;;;7.72;4.68;;;9.10;82.70;;;;;;4901499;29;20127;-93
2024/02/02 10:28:01;;;;;;;9.35;5.05;;;9.10;82.70;;;;;;4877093;29;20049;-79
2024/02/02 10:31:17;;;;;;;7.82;4.63;;;9.20;82.70;;;;;;4897399;29;20036;-79
2024/02/02 10:33:58;;;;;;;6.05;4.35;;;9.20;82.70;;;;;;4843069;29;20089;-86
2024/02/02 10:36:42;;;;;;;5.85;4.53;;;9.20;82.60;;;;;;4825528;29;20048;-83
2024/02/02 10:39:45;;;;;;;6.83;5.00;;;9.20;82.60;;;;;;4881535;29;20274;-79
2024/02/02 10:42:50;;;;;;;5.65;4.07;;;9.20;82.70;;;;;;4877136;29;20344;-79
2024/02/02 10:45:37;;;;;;;6.57;4.60;;;9.30;82.70;;;;;;4882938;29;20033;-82
2024/02/02 10:48:27;;;;;;;6.45;4.65;;;9.30;82.70;;;;;;4893198;29;20060;-85
2024/02/02 10:51:16;;;;;;;7.00;4.80;;;9.30;82.70;;;;;;4882389;29;20167;-83
2024/02/02 10:54:20;;;;;;;6.80;4.65;;;9.30;82.70;;;;;;4882802;29;20057;-78
2024/02/02 10:57:14;;;;;;;6.57;4.53;;;9.30;82.70;;;;;;4896367;29;20045;-95
2024/02/02 10:59:58;;;;;;;6.03;4.70;;;9.30;82.70;;;;;;4885197;29;20032;-79
2024/02/02 11:03:00;;;;;;;6.72;4.78;;;9.40;82.70;;;;;;4880682;29;20028;-83
2024/02/02 11:05:52;;;;;;;5.82;4.65;;;9.40;82.70;;;;;;4878877;29;20096;-86
2024/02/02 11:08:28;;;;;;;8.57;5.60;;;9.40;82.60;;;;;;4857445;29;20104;-96
2024/02/02 11:10:59;;;;;;;6.50;4.63;;;9.40;82.60;;;;;;4897002;29;20056;-95
2024/02/02 11:13:51;;;;;;;6.88;4.45;;;9.50;82.70;;;;;;4907022;29;20024;-84
2024/02/02 11:16:26;;;;;;;6.65;4.65;;;9.50;82.70;;;;;;4892074;29;20060;-96
2024/02/02 11:19:29;;;;;;;7.75;5.13;;;9.50;82.60;;;;;;4900941;29;20092;-85
2024/02/02 11:22:14;;;;;;;6.28;4.53;;;9.50;82.70;;;;;;4889040;29;20032;-96
2024/02/02 11:24:55;;;;;;;6.10;4.68;;;9.50;82.60;;;;;;4885289;29;20029;-79
2024/02/02 11:27:35;;;;;;;7.55;5.05;;;9.60;82.70;;;;;;4891072;29;20031;-96
2024/02/02 11:30:07;;;;;;;6.72;4.72;;;9.60;82.70;;;;;;4882895;29;20446;-85
2024/02/02 11:32:58;;;;;;;7.90;5.47;;;9.60;82.60;;;;;;4883778;29;20071;-90
2024/02/02 11:35:27;;;;;;;7.30;5.05;;;9.60;82.70;;;;;;4899465;29;20040;-83
2024/02/02 11:38:18;;;;;;;8.40;5.90;;;9.70;82.60;;;;;;4873939;29;20024;-84
2024/02/02 11:40:47;;;;;;;7.40;5.15;;;9.70;83.30;;;;;;4901926;29;20156;-85
2024/02/02 11:43:15;;;;;;;6.70;4.70;;;9.70;82.60;;;;;;4891574;29;20029;-83
2024/02/02 11:45:43;;;;;;;7.43;5.53;;;9.70;82.60;;;;;;4900063;29;20052;-80
2024/02/02 11:48:23;;;;;;;6.65;5.22;;;9.70;82.60;;;;;;4869372;29;20029;-86
2024/02/02 11:50:51;;;;;;;9.23;5.75;;;9.80;82.70;;;;;;4888660;29;20122;-84
2024/02/02 11:53:29;;;;;;;7.35;5.47;;;9.80;82.60;;;;;;4894321;29;20041;-92
2024/02/02 11:56:03;;;;;;;8.25;5.82;;;9.80;82.60;;;;;;4896396;29;20071;-85
2024/02/02 11:58:30;;;;;;;7.20;5.63;;;9.80;82.50;;;;;;4890999;29;20032;-78
2024/02/02 12:01:23;;;;;;;8.60;5.78;;;9.80;82.60;;;;;;4888596;29;20032;-80
2024/02/02 12:04:11;;;;;;;6.88;5.13;;;9.90;82.60;;;;;;4904255;29;20044;-96
2024/02/02 12:07:25;;;;;;;7.93;5.40;;;9.90;82.50;;;;;;4892686;29;20067;-84
2024/02/02 12:09:58;;;;;;;6.22;4.68;;;9.90;82.60;;;;;;4860084;29;20428;-84
2024/02/02 12:12:33;;;;;;;7.07;5.55;;;9.90;82.50;;;;;;4904530;29;20028;-84
2024/02/02 12:14:59;;;;;;;7.93;5.50;;;9.90;83.20;;;;;;4896005;29;20045;-86
2024/02/02 12:17:26;;;;;;;7.22;5.32;;;10.00;82.60;;;;;;4901771;29;20037;-96
2024/02/02 12:19:52;;;;;;;7.10;5.15;;;10.00;82.60;;;;;;4886083;29;20060;-84
2024/02/02 12:22:19;;;;;;;8.18;5.68;;;10.00;82.60;;;;;;4881697;29;20060;-88
2024/02/02 12:24:47;;;;;;;7.03;5.65;;;10.00;82.50;;;;;;4890609;29;20037;-92
2024/02/02 12:27:13;;;;;;;7.65;6.10;;;10.00;82.60;;;;;;4884409;29;20059;-79
2024/02/02 12:29:40;;;;;;;8.70;6.05;;;10.10;82.60;;;;;;4891153;29;20044;-92
2024/02/02 12:32:08;;;;;;;8.32;5.65;;;10.10;82.60;;;;;;4898361;29;20039;-85
2024/02/02 12:34:35;;;;;;;7.05;5.05;;;10.10;82.60;;;;;;4893900;29;20029;-79
2024/02/02 12:37:01;;;;;;;8.15;5.65;;;10.10;82.60;;;;;;4899213;29;20040;-93
2024/02/02 12:39:31;;;;;;;7.38;5.25;;;10.20;82.60;;;;;;4896767;29;20032;-83
2024/02/02 12:42:02;;;;;;;8.45;6.40;;;10.10;82.50;;;;;;4890092;29;20029;-79
2024/02/02 12:44:30;;;;;;;8.60;5.28;;;10.20;82.50;;;;;;4885806;29;20220;-85
2024/02/02 12:46:55;;;;;;;8.07;6.00;;;10.20;82.50;;;;;;4893671;29;20025;-83
2024/02/02 12:49:21;;;;;;;9.43;5.60;;;10.20;82.50;;;;;;4893420;29;20478;-84
2024/02/02 12:51:48;;;;;;;8.93;5.90;;;10.20;82.50;;;;;;4879817;29;20398;-79
2024/02/02 12:54:15;;;;;;;8.73;6.25;;;10.20;82.40;;;;;;4887319;29;20041;-78
2024/02/02 12:56:41;;;;;;;9.30;5.75;;;10.20;82.50;;;;;;4879133;29;20041;-78
2024/02/02 12:59:11;;;;;;;7.70;5.90;;;10.20;82.40;;;;;;4892333;29;20027;-79
2024/02/02 13:01:37;;;;;;;8.60;6.10;;;10.30;82.50;;;;;;4891613;29;20024;-84
2024/02/02 13:04:04;;;;;;;11.82;6.40;;;10.30;83.10;;;;;;4895270;29;20169;-84
2024/02/02 13:06:32;;;;;;;10.60;6.90;;;10.30;82.50;;;;;;4898450;29;20064;-82
2024/02/02 13:09:29;;;;;;;7.28;5.25;;;10.30;82.50;;;;;;4894660;29;20047;-83
2024/02/02 13:11:57;;;;;;;7.85;5.75;;;10.30;82.50;;;;;;4897488;29;20672;-88
2024/02/02 13:14:35;;;;;;;9.15;6.25;;;10.40;82.50;;;;;;4904589;29;20135;-79
2024/02/02 13:17:09;;;;;;;9.48;5.93;;;10.40;82.50;;;;;;4883345;29;20033;-84